createdAt,value
2022-08-04T00:00:12.085Z,5.70
2022-08-04T00:03:04.807Z,5.63
2022-08-04T00:05:41.091Z,4.80
2022-08-04T00:08:20.086Z,5.13
2022-08-04T00:10:53.609Z,5.73
2022-08-04T00:13:26.027Z,5.87
2022-08-04T00:15:54.641Z,5.40
2022-08-04T00:18:29.369Z,6.07
2022-08-04T00:21:01.180Z,6.73
2022-08-04T00:24:12.113Z,5.60
2022-08-04T00:26:20.643Z,5.60
2022-08-04T00:28:48.668Z,6.47
2022-08-04T00:31:16.732Z,5.20
2022-08-04T00:33:46.499Z,5.43
2022-08-04T00:36:14.885Z,5.60
2022-08-04T00:38:43.734Z,5.03
2022-08-04T00:41:36.125Z,5.37
2022-08-04T00:44:31.313Z,5.13
2022-08-04T00:47:12.391Z,5.67
2022-08-04T00:50:08.589Z,5.70
2022-08-04T00:52:47.764Z,4.63
2022-08-04T00:55:42.140Z,5.00
2022-08-04T00:58:14.157Z,5.27
2022-08-04T01:00:47.463Z,6.70
2022-08-04T01:03:36.471Z,5.30
2022-08-04T01:06:11.746Z,5.20
2022-08-04T01:09:03.036Z,6.10
2022-08-04T01:12:15.761Z,5.80
2022-08-04T01:14:57.342Z,4.77
2022-08-04T01:17:36.412Z,5.00
2022-08-04T01:20:07.976Z,5.77
2022-08-04T01:22:34.918Z,5.60
2022-08-04T01:25:33.246Z,4.87
2022-08-04T01:28:22.224Z,5.97
2022-08-04T01:30:56.824Z,6.00
2022-08-04T01:33:27.620Z,5.90
2022-08-04T01:36:03.696Z,6.10
2022-08-04T01:38:34.071Z,5.10
2022-08-04T01:41:06.927Z,5.67
2022-08-04T01:43:36.272Z,6.43
2022-08-04T01:46:05.585Z,5.13
2022-08-04T01:48:37.875Z,5.00
2022-08-04T01:51:06.988Z,5.47
2022-08-04T01:53:43.181Z,5.90
2022-08-04T01:56:11.644Z,6.13
2022-08-04T01:58:40.148Z,5.47
2022-08-04T02:01:09.923Z,4.80
2022-08-04T02:04:20.284Z,4.80
2022-08-04T02:06:47.876Z,5.87
2022-08-04T02:09:55.039Z,4.90
2022-08-04T02:12:38.430Z,5.77
2022-08-04T02:15:18.401Z,5.97
2022-08-04T02:18:05.056Z,5.70
2022-08-04T02:20:39.605Z,6.00
2022-08-04T02:23:09.891Z,5.70
2022-08-04T02:26:00.692Z,6.00
2022-08-04T02:28:50.353Z,5.77
2022-08-04T02:31:29.104Z,5.83
2022-08-04T02:34:13.913Z,5.03
2022-08-04T02:36:42.384Z,5.83
2022-08-04T02:39:11.360Z,6.00
2022-08-04T02:41:42.733Z,5.50
2022-08-04T02:44:10.951Z,4.67
2022-08-04T02:46:39.194Z,5.30
2022-08-04T02:49:10.637Z,5.67
2022-08-04T02:51:41.694Z,5.20
2022-08-04T02:54:08.871Z,5.40
2022-08-04T02:56:38.693Z,5.40
2022-08-04T02:59:11.997Z,6.47
2022-08-04T03:01:57.476Z,5.30
2022-08-04T03:04:51.178Z,5.87
2022-08-04T03:07:30.502Z,5.97
2022-08-04T03:10:00.422Z,5.77
2022-08-04T03:12:58.680Z,5.87
2022-08-04T03:15:57.126Z,4.93
2022-08-04T03:18:45.315Z,5.50
2022-08-04T03:21:40.442Z,5.13
2022-08-04T03:24:20.325Z,5.40
2022-08-04T03:27:05.858Z,5.90
2022-08-04T03:30:03.764Z,5.60
2022-08-04T03:33:07.655Z,5.33
2022-08-04T03:35:49.670Z,5.50
2022-08-04T03:38:41.322Z,5.00
2022-08-04T03:41:51.898Z,5.77
2022-08-04T03:44:32.629Z,5.30
2022-08-04T03:47:11.502Z,4.97
2022-08-04T03:49:50.254Z,4.60
2022-08-04T03:52:42.463Z,5.37
2022-08-04T03:55:29.227Z,5.67
2022-08-04T03:58:34.186Z,4.50
2022-08-04T04:01:19.278Z,5.20
2022-08-04T04:04:01.261Z,5.00
2022-08-04T04:06:40.126Z,6.00
2022-08-04T04:09:53.876Z,5.13
2022-08-04T04:12:50.641Z,5.53
2022-08-04T04:15:50.254Z,5.60
2022-08-04T04:18:38.604Z,5.93
2022-08-04T04:21:08.587Z,5.70
2022-08-04T04:23:54.180Z,5.50
2022-08-04T04:26:36.302Z,6.77
2022-08-04T04:29:31.321Z,5.80
2022-08-04T04:32:24.130Z,5.20
2022-08-04T04:35:02.881Z,6.63
2022-08-04T04:37:49.155Z,6.50
2022-08-04T04:40:44.150Z,6.07
2022-08-04T04:43:11.107Z,5.97
2022-08-04T04:45:59.592Z,6.00
2022-08-04T04:48:51.086Z,7.27
2022-08-04T04:51:29.044Z,6.13
2022-08-04T04:54:17.706Z,6.53
2022-08-04T04:56:50.410Z,5.87
2022-08-04T04:59:22.229Z,6.30
2022-08-04T05:01:52.231Z,6.70
2022-08-04T05:04:48.170Z,5.00
2022-08-04T05:07:17.887Z,5.33
2022-08-04T05:10:13.453Z,5.87
2022-08-04T05:14:32.216Z,5.33
2022-08-04T05:15:43.444Z,5.63
2022-08-04T05:18:16.297Z,5.23
2022-08-04T05:20:48.724Z,5.90
2022-08-04T05:23:28.599Z,5.10
2022-08-04T05:26:02.111Z,5.33
2022-08-04T05:28:38.950Z,5.13
2022-08-04T05:31:30.639Z,5.30
2022-08-04T05:34:03.269Z,5.97
2022-08-04T05:36:41.755Z,5.37
2022-08-04T05:39:14.451Z,4.80
2022-08-04T05:41:45.778Z,5.90
2022-08-04T05:44:20.232Z,4.83
2022-08-04T05:46:56.193Z,4.70
2022-08-04T05:49:29.696Z,5.70
2022-08-04T05:52:01.311Z,4.37
2022-08-04T05:54:30.531Z,4.53
2022-08-04T05:56:58.339Z,4.80
2022-08-04T05:59:26.796Z,3.20
2022-08-04T06:01:57.675Z,4.70
2022-08-04T06:04:43.065Z,4.20
2022-08-04T06:07:13.010Z,4.07
2022-08-04T06:09:41.272Z,4.43
2022-08-04T06:12:19.496Z,4.00
2022-08-04T06:14:49.101Z,4.90
2022-08-04T06:18:35.474Z,4.23
2022-08-04T06:20:18.245Z,4.30
2022-08-04T06:22:49.735Z,4.37
2022-08-04T06:25:22.626Z,4.30
2022-08-04T06:27:50.672Z,3.70
2022-08-04T06:30:21.612Z,3.63
2022-08-04T06:33:03.368Z,3.33
2022-08-04T06:35:32.287Z,3.83
2022-08-04T06:38:01.170Z,2.80
2022-08-04T06:40:31.459Z,4.20
2022-08-04T06:43:05.525Z,3.60
2022-08-04T06:45:35.134Z,3.23
2022-08-04T06:48:04.996Z,3.00
2022-08-04T06:51:24.726Z,3.33
2022-08-04T06:53:21.443Z,2.70
2022-08-04T06:55:49.326Z,2.63
2022-08-04T06:58:17.547Z,2.47
2022-08-04T07:00:46.025Z,3.30
2022-08-04T07:03:13.833Z,2.50
2022-08-04T07:05:41.832Z,2.80
2022-08-04T07:08:11.468Z,2.57
2022-08-04T07:10:39.344Z,2.97
2022-08-04T07:13:07.616Z,2.40
2022-08-04T07:15:36.767Z,3.17
2022-08-04T07:18:05.209Z,2.87
2022-08-04T07:20:35.565Z,3.07
2022-08-04T07:23:07.467Z,2.73
2022-08-04T07:26:11.124Z,2.47
2022-08-04T07:28:29.350Z,2.30
2022-08-04T07:30:58.390Z,2.90
2022-08-04T07:33:26.260Z,4.03
2022-08-04T07:36:10.493Z,2.40
2022-08-04T07:38:48.177Z,3.13
2022-08-04T07:41:35.882Z,2.70
2022-08-04T07:44:04.457Z,2.33
2022-08-04T07:46:31.727Z,2.50
2022-08-04T07:49:01.120Z,2.20
2022-08-04T07:51:28.944Z,2.70
2022-08-04T07:53:57.392Z,2.63
2022-08-04T07:56:28.613Z,2.13
2022-08-04T07:58:56.514Z,1.90
2022-08-04T08:01:24.877Z,2.57
2022-08-04T08:03:54.051Z,2.73
2022-08-04T08:06:32.218Z,1.70
2022-08-04T08:09:13.628Z,2.20
2022-08-04T08:12:38.105Z,2.40
2022-08-04T08:14:31.806Z,2.23
2022-08-04T08:17:00.258Z,1.80
2022-08-04T08:19:27.258Z,1.90
2022-08-04T08:21:59.745Z,2.03
2022-08-04T08:24:31.802Z,1.60
2022-08-04T08:27:00.521Z,2.07
2022-08-04T08:29:29.605Z,1.83
2022-08-04T08:32:01.452Z,1.67
2022-08-04T08:34:33.258Z,1.70
2022-08-04T08:37:21.454Z,1.77
2022-08-04T08:39:51.235Z,1.93
2022-08-04T08:42:49.138Z,1.63
2022-08-04T08:45:34.279Z,1.80
2022-08-04T08:48:49.409Z,1.60
2022-08-04T08:51:42.589Z,1.90
2022-08-04T08:54:42.279Z,1.40
2022-08-04T08:57:42.466Z,1.60
2022-08-04T09:00:58.079Z,2.20
2022-08-04T09:03:52.070Z,1.60
2022-08-04T09:06:42.775Z,2.07
2022-08-04T09:09:46.604Z,2.17
2022-08-04T09:12:31.647Z,1.70
2022-08-04T09:15:05.296Z,1.63
2022-08-04T09:17:38.052Z,1.90
2022-08-04T09:20:25.303Z,1.60
2022-08-04T09:23:22.920Z,1.57
2022-08-04T09:26:09.189Z,1.97
2022-08-04T09:28:54.410Z,1.53
2022-08-04T09:31:51.402Z,2.20
2022-08-04T09:34:32.733Z,1.93
2022-08-04T09:37:15.148Z,1.93
2022-08-04T09:40:07.963Z,1.73
2022-08-04T09:42:57.719Z,1.67
2022-08-04T09:45:57.546Z,2.20
2022-08-04T09:49:11.706Z,2.07
2022-08-04T09:51:58.142Z,1.87
2022-08-04T09:54:39.361Z,1.57
2022-08-04T09:57:08.944Z,2.07
2022-08-04T10:00:02.235Z,1.83
2022-08-04T10:02:42.837Z,2.20
2022-08-04T10:05:14.803Z,2.10
2022-08-04T10:07:59.617Z,1.80
2022-08-04T10:11:06.952Z,2.10
2022-08-04T10:13:47.048Z,2.00
2022-08-04T10:16:43.026Z,2.47
2022-08-04T10:19:28.901Z,2.57
2022-08-04T10:22:28.692Z,2.13
2022-08-04T10:26:03.437Z,2.07
2022-08-04T10:28:03.045Z,2.53
2022-08-04T10:30:34.251Z,2.00
2022-08-04T10:33:24.073Z,2.20
2022-08-04T10:36:11.888Z,2.33
2022-08-04T10:39:00.255Z,2.60
2022-08-04T10:41:27.113Z,2.77
2022-08-04T10:44:33.246Z,2.73
2022-08-04T10:47:16.658Z,2.47
2022-08-04T10:49:56.145Z,2.30
2022-08-04T10:52:29.420Z,2.20
2022-08-04T10:55:18.814Z,2.17
2022-08-04T10:58:06.083Z,2.20
2022-08-04T11:00:36.277Z,2.43
2022-08-04T11:03:09.328Z,2.93
2022-08-04T11:05:53.117Z,2.70
2022-08-04T11:08:21.613Z,2.20
2022-08-04T11:10:59.307Z,2.30
2022-08-04T11:13:46.888Z,2.13
2022-08-04T11:16:21.070Z,2.67
2022-08-04T11:19:10.113Z,2.00
2022-08-04T11:21:43.586Z,2.20
2022-08-04T11:24:21.768Z,2.87
2022-08-04T11:27:09.209Z,2.20
2022-08-04T11:29:50.357Z,2.23
2022-08-04T11:32:23.109Z,2.40
2022-08-04T11:34:54.838Z,2.00
2022-08-04T11:37:44.124Z,2.53
2022-08-04T11:40:24.670Z,2.47
2022-08-04T11:43:04.670Z,2.30
2022-08-04T11:45:37.960Z,2.27
2022-08-04T11:48:11.261Z,2.40
2022-08-04T11:50:53.984Z,2.17
2022-08-04T11:53:24.535Z,2.53
2022-08-04T11:56:07.961Z,2.13
2022-08-04T11:58:37.422Z,2.20
2022-08-04T12:01:09.856Z,2.40
2022-08-04T12:04:18.167Z,2.60
2022-08-04T12:07:30.611Z,2.20
2022-08-04T12:10:41.826Z,1.90
2022-08-04T12:13:32.561Z,2.40
2022-08-04T12:16:05.115Z,2.20
2022-08-04T12:18:40.587Z,5.20
2022-08-04T12:21:33.824Z,2.10
2022-08-04T12:24:18.507Z,1.90
2022-08-04T12:26:56.123Z,2.20
2022-08-04T12:29:25.959Z,1.90
2022-08-04T12:32:00.568Z,2.07
2022-08-04T12:34:35.492Z,2.00
2022-08-04T12:37:23.345Z,2.60
2022-08-04T12:40:29.118Z,2.13
2022-08-04T12:43:20.411Z,3.23
2022-08-04T12:45:51.717Z,2.80
2022-08-04T12:48:21.563Z,3.23
2022-08-04T12:50:54.060Z,2.70
2022-08-04T12:53:32.090Z,1.80
2022-08-04T12:56:01.674Z,2.13
2022-08-04T12:58:42.285Z,2.20
2022-08-04T13:02:06.929Z,2.27
2022-08-04T13:04:20.181Z,2.20
2022-08-04T13:06:58.261Z,2.10
2022-08-04T13:09:31.745Z,1.60
2022-08-04T13:12:02.730Z,2.00
2022-08-04T13:14:38.390Z,1.77
2022-08-04T13:17:06.572Z,2.40
2022-08-04T13:19:41.354Z,1.80
2022-08-04T13:22:09.308Z,2.30
2022-08-04T13:24:56.999Z,2.47
2022-08-04T13:27:26.755Z,1.90
2022-08-04T13:29:58.111Z,1.63
2022-08-04T13:32:30.193Z,1.70
2022-08-04T13:34:59.986Z,2.00
2022-08-04T13:37:35.043Z,2.00
2022-08-04T13:40:14.152Z,1.30
2022-08-04T13:42:46.775Z,2.00
2022-08-04T13:45:14.849Z,2.30
2022-08-04T13:47:43.397Z,1.80
2022-08-04T13:50:27.198Z,1.77
2022-08-04T13:52:55.604Z,1.87
2022-08-04T13:55:35.836Z,1.77
2022-08-04T13:58:09.459Z,1.87
2022-08-04T14:00:58.819Z,1.80
2022-08-04T14:03:53.543Z,1.77
2022-08-04T14:06:27.949Z,1.73
2022-08-04T14:08:57.509Z,1.47
2022-08-04T14:12:06.841Z,1.53
2022-08-04T14:14:31.809Z,1.53
2022-08-04T14:17:19.982Z,2.00
2022-08-04T14:19:50.229Z,1.73
2022-08-04T14:22:26.036Z,1.70
2022-08-04T14:25:01.273Z,2.13
2022-08-04T14:27:30.448Z,1.80
2022-08-04T14:29:57.599Z,1.60
2022-08-04T14:32:26.451Z,1.50
2022-08-04T14:34:53.802Z,1.63
2022-08-04T14:37:22.658Z,1.70
2022-08-04T14:40:18.996Z,1.40
2022-08-04T14:42:41.640Z,1.50
2022-08-04T14:45:09.112Z,1.50
2022-08-04T14:47:40.703Z,1.27
2022-08-04T14:50:09.872Z,2.00
2022-08-04T14:52:38.042Z,1.60
2022-08-04T14:55:24.893Z,1.33
2022-08-04T14:58:37.973Z,1.67
2022-08-04T15:00:39.611Z,1.70
2022-08-04T15:03:08.991Z,1.70
2022-08-04T15:06:01.731Z,1.80
2022-08-04T15:08:31.258Z,1.80
2022-08-04T15:11:02.432Z,1.70
2022-08-04T15:13:33.512Z,1.77
2022-08-04T15:16:07.087Z,1.73
2022-08-04T15:18:36.757Z,1.50
2022-08-04T15:21:04.855Z,1.50
2022-08-04T15:23:38.326Z,2.40
2022-08-04T15:26:10.473Z,1.80
2022-08-04T15:28:41.170Z,1.50
2022-08-04T15:32:03.438Z,1.50
2022-08-04T15:33:57.341Z,1.70
2022-08-04T15:36:57.883Z,2.07
2022-08-04T15:39:33.738Z,1.30
2022-08-04T15:42:30.991Z,1.63
2022-08-04T15:45:11.180Z,1.43
2022-08-04T15:47:38.153Z,1.47
2022-08-04T15:50:11.867Z,1.40
2022-08-04T15:53:01.245Z,1.70
2022-08-04T15:55:39.061Z,1.77
2022-08-04T15:58:08.720Z,1.60
2022-08-04T16:00:50.916Z,1.83
2022-08-04T16:04:00.563Z,1.50
2022-08-04T16:06:22.999Z,1.93
2022-08-04T16:08:58.072Z,1.50
2022-08-04T16:11:31.463Z,1.70
2022-08-04T16:13:59.111Z,2.63
2022-08-04T16:16:42.336Z,1.97
2022-08-04T16:19:47.649Z,1.80
2022-08-04T16:22:34.070Z,2.20
2022-08-04T16:25:01.483Z,1.80
2022-08-04T16:27:40.516Z,2.00
2022-08-04T16:30:13.965Z,1.60
2022-08-04T16:32:46.640Z,1.77
2022-08-04T16:35:19.465Z,1.90
2022-08-04T16:37:46.422Z,1.87
2022-08-04T16:40:37.073Z,1.73
2022-08-04T16:43:08.123Z,1.40
2022-08-04T16:45:56.363Z,2.07
2022-08-04T16:48:32.165Z,1.50
2022-08-04T16:51:03.309Z,1.70
2022-08-04T16:54:03.929Z,1.90
2022-08-04T16:56:32.996Z,2.10
2022-08-04T16:59:11.834Z,1.87
2022-08-04T17:01:49.246Z,2.00
2022-08-04T17:04:16.893Z,2.60
2022-08-04T17:06:49.366Z,2.40
2022-08-04T17:09:18.283Z,1.97
2022-08-04T17:11:47.211Z,1.40
2022-08-04T17:14:14.160Z,1.67
2022-08-04T17:16:42.608Z,1.83
2022-08-04T17:19:23.727Z,1.53
2022-08-04T17:22:04.761Z,2.23
2022-08-04T17:24:38.588Z,2.20
2022-08-04T17:28:09.005Z,2.33
2022-08-04T17:29:53.295Z,2.03
2022-08-04T17:32:22.026Z,2.20
2022-08-04T17:34:51.445Z,1.60
2022-08-04T17:37:39.284Z,2.37
2022-08-04T17:40:14.393Z,1.93
2022-08-04T17:42:50.788Z,1.90
2022-08-04T17:45:50.838Z,2.07
2022-08-04T17:48:09.563Z,1.70
2022-08-04T17:50:43.139Z,2.40
2022-08-04T17:53:12.139Z,1.73
2022-08-04T17:55:41.437Z,1.90
2022-08-04T17:58:21.912Z,2.10
2022-08-04T18:01:24.678Z,1.83
2022-08-04T18:03:51.712Z,1.87
2022-08-04T18:06:21.891Z,1.87
2022-08-04T18:08:58.154Z,2.37
2022-08-04T18:11:29.507Z,1.70
2022-08-04T18:14:08.742Z,2.20
2022-08-04T18:16:45.998Z,2.00
2022-08-04T18:19:15.291Z,1.97
2022-08-04T18:21:46.717Z,2.50
2022-08-04T18:24:34.017Z,2.00
2022-08-04T18:27:16.637Z,2.17
2022-08-04T18:30:15.450Z,2.47
2022-08-04T18:32:32.974Z,2.00
2022-08-04T18:35:04.977Z,2.80
2022-08-04T18:38:06.781Z,2.87
2022-08-04T18:40:30.134Z,2.40
2022-08-04T18:43:03.643Z,2.50
2022-08-04T18:45:35.305Z,1.93
2022-08-04T18:48:04.055Z,2.00
2022-08-04T18:51:09.714Z,1.93
2022-08-04T18:53:35.081Z,2.33
2022-08-04T18:56:03.736Z,2.20
2022-08-04T18:58:33.058Z,2.07
2022-08-04T19:01:01.324Z,2.47
2022-08-04T19:03:30.795Z,2.70
2022-08-04T19:06:01.505Z,2.30
2022-08-04T19:08:33.280Z,2.27
2022-08-04T19:11:28.675Z,1.83
2022-08-04T19:13:58.219Z,2.07
2022-08-04T19:16:27.346Z,2.33
2022-08-04T19:18:55.913Z,2.70
2022-08-04T19:21:58.779Z,2.03
2022-08-04T19:24:32.409Z,2.30
2022-08-04T19:26:59.530Z,2.23
2022-08-04T19:29:37.942Z,2.50
2022-08-04T19:32:14.513Z,2.13
2022-08-04T19:34:46.407Z,2.90
2022-08-04T19:37:57.031Z,2.83
2022-08-04T19:40:08.016Z,2.57
2022-08-04T19:42:36.392Z,2.70
2022-08-04T19:45:04.385Z,3.00
2022-08-04T19:48:11.216Z,2.67
2022-08-04T19:50:18.301Z,2.60
2022-08-04T19:52:51.461Z,2.70
2022-08-04T19:55:22.678Z,2.67
2022-08-04T19:57:50.726Z,2.30
2022-08-04T20:00:33.319Z,2.97
2022-08-04T20:03:02.621Z,2.23
2022-08-04T20:05:52.759Z,2.43
2022-08-04T20:08:19.325Z,2.70
2022-08-04T20:10:47.034Z,3.13
2022-08-04T20:13:19.674Z,2.97
2022-08-04T20:15:57.260Z,2.70
2022-08-04T20:18:36.040Z,2.50
2022-08-04T20:21:19.435Z,2.97
2022-08-04T20:23:52.255Z,3.00
2022-08-04T20:26:19.418Z,3.10
2022-08-04T20:28:51.799Z,3.30
2022-08-04T20:31:19.826Z,2.20
2022-08-04T20:33:49.295Z,2.87
2022-08-04T20:36:21.240Z,2.63
2022-08-04T20:38:52.793Z,3.17
2022-08-04T20:41:20.739Z,3.37
2022-08-04T20:43:49.978Z,3.27
2022-08-04T20:46:28.486Z,3.47
2022-08-04T20:48:57.519Z,3.30
2022-08-04T20:51:31.590Z,2.40
2022-08-04T20:54:00.334Z,3.53
2022-08-04T20:56:31.346Z,2.67
2022-08-04T20:58:59.914Z,3.03
2022-08-04T21:01:30.032Z,2.90
2022-08-04T21:07:07.170Z,4.70
2022-08-04T21:09:38.032Z,3.33
2022-08-04T21:12:10.448Z,3.00
2022-08-04T21:14:37.406Z,3.37
2022-08-04T21:17:07.218Z,3.80
2022-08-04T21:19:36.664Z,3.80
2022-08-04T21:22:07.006Z,3.37
2022-08-04T21:24:37.966Z,3.63
2022-08-04T21:27:06.409Z,3.60
2022-08-04T21:29:36.876Z,3.07
2022-08-04T21:32:07.937Z,3.60
2022-08-04T21:34:39.140Z,3.07
2022-08-04T21:39:59.234Z,3.13
2022-08-04T21:42:28.769Z,3.40
2022-08-04T21:45:13.528Z,3.60
2022-08-04T21:47:46.663Z,3.33
2022-08-04T21:50:20.179Z,3.40
2022-08-04T21:52:48.306Z,2.93
2022-08-04T21:55:16.018Z,3.70
2022-08-04T21:57:42.881Z,3.70
2022-08-04T22:00:18.242Z,3.17
2022-08-04T22:02:45.795Z,2.83
2022-08-04T22:05:15.923Z,3.63
2022-08-04T22:10:32.260Z,3.10
2022-08-04T22:13:06.880Z,3.30
2022-08-04T22:16:04.996Z,3.13
2022-08-04T22:18:24.397Z,4.07
2022-08-04T22:20:54.906Z,3.40
2022-08-04T22:23:24.189Z,3.20
2022-08-04T22:25:53.669Z,3.67
2022-08-04T22:28:22.394Z,3.50
2022-08-04T22:30:52.402Z,3.67
2022-08-04T22:33:19.257Z,3.53
2022-08-04T22:35:49.994Z,3.53
2022-08-04T22:38:21.311Z,3.10
2022-08-04T22:41:01.206Z,3.10
2022-08-04T22:43:31.750Z,4.10
2022-08-04T22:46:04.008Z,3.90
2022-08-04T22:48:33.799Z,3.40
2022-08-04T22:51:02.612Z,3.20
2022-08-04T22:53:29.723Z,3.80
2022-08-04T22:56:09.398Z,3.90
2022-08-04T22:58:45.575Z,3.53
2022-08-04T23:01:18.353Z,4.10
2022-08-04T23:03:50.998Z,3.20
2022-08-04T23:06:24.366Z,4.07
2022-08-04T23:08:52.199Z,3.67
2022-08-04T23:11:19.092Z,3.50
2022-08-04T23:13:47.349Z,3.63
2022-08-04T23:16:17.093Z,3.37
2022-08-04T23:18:48.170Z,4.20
2022-08-04T23:21:16.656Z,4.30
2022-08-04T23:23:47.705Z,3.50
2022-08-04T23:26:27.896Z,3.33
2022-08-04T23:28:56.221Z,4.23
2022-08-04T23:31:24.280Z,4.53
2022-08-04T23:33:52.362Z,4.70
2022-08-04T23:36:26.312Z,4.60
2022-08-04T23:39:00.325Z,4.97
2022-08-04T23:41:55.431Z,4.67
2022-08-04T23:44:17.561Z,5.40
2022-08-04T23:46:53.432Z,4.80
2022-08-04T23:49:22.482Z,4.37
2022-08-04T23:51:49.782Z,4.93
2022-08-04T23:54:16.726Z,4.60
2022-08-04T23:56:52.657Z,4.33
2022-08-04T23:59:49.016Z,4.63
